Time;durP1;ratioP1;P1;durP2;ratioP2;P2;SDS_P1;SDS_P2;PMS_P1;PMS_P2;Temp;Humidity;BMP_temperature;BMP_pressure;BME280_temperature;BME280_humidity;BME280_pressure;Samples;Min_cycle;Max_cycle;Signal;HPM_P1;HPM_P2
2022/07/10 00:00:12;;;;;;;13.50;6.90;;;;;;;14.62;72.59;98481.48;105419;1286;22646;-77
2022/07/10 00:03:03;;;;;;;10.10;6.00;;;;;;;14.59;72.45;98477.13;105828;1285;137921;-77
2022/07/10 00:05:30;;;;;;;11.20;6.30;;;;;;;14.58;72.76;98476.27;105777;1285;23622;-76
2022/07/10 00:07:57;;;;;;;8.60;6.20;;;;;;;14.58;72.75;98476.42;105395;1285;24235;-77
2022/07/10 00:10:25;;;;;;;8.80;6.30;;;;;;;14.56;72.52;98473.05;105643;1285;138848;-77
2022/07/10 00:12:51;;;;;;;10.40;6.70;;;;;;;14.55;72.72;98475.17;105282;1286;22720;-77
2022/07/10 00:15:19;;;;;;;8.20;5.30;;;;;;;14.52;72.86;98470.66;105166;1287;137902;-77
2022/07/10 00:17:46;;;;;;;8.00;5.30;;;;;;;14.47;72.74;98472.58;106099;1286;22727;-76
2022/07/10 00:20:14;;;;;;;10.90;5.10;;;;;;;14.42;72.74;98467.70;106051;1286;22559;-77
2022/07/10 00:22:41;;;;;;;6.40;4.60;;;;;;;14.41;73.07;98466.54;105252;1285;139053;-77
2022/07/10 00:25:11;;;;;;;7.20;5.20;;;;;;;14.42;72.94;98467.52;105380;1287;23272;-76
2022/07/10 00:27:39;;;;;;;9.30;5.30;;;;;;;14.43;73.08;98465.56;105450;1285;138390;-77
2022/07/10 00:30:10;;;;;;;10.80;4.90;;;;;;;14.41;73.09;98467.25;105160;1287;22580;-77
2022/07/10 00:32:38;;;;;;;8.30;5.30;;;;;;;14.36;72.88;98460.23;105422;1285;138119;-77
2022/07/10 00:35:06;;;;;;;13.50;5.50;;;;;;;14.28;72.91;98461.68;106004;1286;25262;-77
2022/07/10 00:37:33;;;;;;;8.10;5.00;;;;;;;14.20;73.06;98454.63;105066;1286;22595;-78
2022/07/10 00:40:01;;;;;;;10.60;5.80;;;;;;;14.15;73.13;98451.71;105135;1286;138640;-77
2022/07/10 00:42:28;;;;;;;7.60;4.90;;;;;;;14.15;73.25;98448.60;106393;1285;22573;-77
2022/07/10 00:44:55;;;;;;;7.80;5.10;;;;;;;14.14;73.39;98443.49;105812;1285;138905;-77
2022/07/10 00:47:22;;;;;;;10.80;4.80;;;;;;;14.13;73.15;98447.92;105221;1285;24241;-77
2022/07/10 00:49:49;;;;;;;7.40;5.80;;;;;;;14.05;73.52;98447.35;105132;1285;25353;-77
2022/07/10 00:52:17;;;;;;;5.90;4.90;;;;;;;13.95;73.73;98444.73;105043;1285;138921;-77
2022/07/10 00:54:48;;;;;;;7.40;4.80;;;;;;;13.88;73.98;98442.30;105706;1286;25586;-77
2022/07/10 00:57:15;;;;;;;6.40;4.90;;;;;;;13.84;74.17;98440.80;105937;1285;139228;-77
2022/07/10 00:59:44;;;;;;;8.00;5.70;;;;;;;13.83;74.76;98435.66;106005;1286;23297;-77
2022/07/10 01:02:11;;;;;;;7.00;5.90;;;;;;;13.83;74.72;98427.88;105151;1286;22488;-77
2022/07/10 01:04:38;;;;;;;7.80;5.40;;;;;;;13.86;74.79;98430.79;105408;1286;137739;-76
2022/07/10 01:07:05;;;;;;;12.70;5.90;;;;;;;13.88;74.91;98431.45;104923;1285;22575;-77
2022/07/10 01:09:33;;;;;;;9.70;5.60;;;;;;;13.88;74.89;98428.93;105031;1285;138641;-77
2022/07/10 01:12:02;;;;;;;12.90;6.40;;;;;;;13.86;74.97;98424.88;105298;1285;22660;-77
2022/07/10 01:14:30;;;;;;;8.00;5.70;;;;;;;13.84;75.11;98426.83;105220;1286;138613;-77
2022/07/10 01:17:00;;;;;;;10.10;6.50;;;;;;;13.80;75.28;98423.50;104985;1286;24391;-77
2022/07/10 01:19:27;;;;;;;10.10;6.50;;;;;;;13.72;75.47;98418.91;105257;1286;25332;-77
2022/07/10 01:21:54;;;;;;;10.50;6.90;;;;;;;13.68;75.77;98418.67;105137;1286;138011;-76
2022/07/10 01:24:21;;;;;;;7.70;6.80;;;;;;;13.65;75.73;98416.47;105046;1288;22685;-77
2022/07/10 01:26:49;;;;;;;10.30;6.50;;;;;;;13.64;75.84;98416.95;105071;1288;139585;-77
2022/07/10 01:29:16;;;;;;;11.50;5.90;;;;;;;13.62;75.81;98414.77;105361;1285;25541;-77
2022/07/10 01:31:43;;;;;;;8.80;6.00;;;;;;;13.64;75.90;98412.19;104871;1288;22567;-80
2022/07/10 01:34:10;;;;;;;10.70;6.80;;;;;;;13.67;75.97;98411.71;105381;1285;138432;-77
2022/07/10 01:36:37;;;;;;;10.70;6.60;;;;;;;13.69;75.69;98409.60;105297;1286;22606;-77
2022/07/10 01:39:06;;;;;;;11.90;6.90;;;;;;;13.69;75.59;98405.20;104965;1286;138218;-77
2022/07/10 01:41:33;;;;;;;8.60;6.30;;;;;;;13.69;75.67;98400.52;105059;1285;22589;-78
2022/07/10 01:44:01;;;;;;;8.20;6.10;;;;;;;13.71;75.90;98396.95;105424;1286;22832;-78
2022/07/10 01:46:28;;;;;;;9.80;6.50;;;;;;;13.73;75.78;98389.24;105158;1286;139328;-78
2022/07/10 01:48:55;;;;;;;7.70;6.30;;;;;;;13.75;75.85;98391.02;105205;1286;22573;-78
2022/07/10 01:51:22;;;;;;;11.50;6.70;;;;;;;13.79;75.92;98394.80;105935;1286;137718;-78
2022/07/10 01:53:49;;;;;;;13.00;6.50;;;;;;;13.79;75.82;98387.95;105067;1285;25393;-78
2022/07/10 01:56:17;;;;;;;10.00;6.30;;;;;;;13.78;75.79;98388.90;105249;1285;22582;-78
2022/07/10 01:58:44;;;;;;;11.50;6.50;;;;;;;13.79;76.01;98387.25;105016;1285;139104;-78
2022/07/10 02:01:11;;;;;;;10.30;6.90;;;;;;;13.80;75.91;98388.02;105263;1285;22746;-77
2022/07/10 02:06:20;;;;;;;15.30;7.30;;;;;;;13.81;75.93;98380.14;105321;1285;24208;-78
2022/07/10 02:08:46;;;;;;;9.60;7.10;;;;;;;13.82;75.97;98372.58;104799;1286;138081;-78
2022/07/10 02:11:13;;;;;;;10.60;7.00;;;;;;;13.77;75.84;98363.38;105315;1285;22687;-78
2022/07/10 02:13:40;;;;;;;9.10;6.20;;;;;;;13.72;76.21;98363.45;104747;1286;22728;-77
2022/07/10 02:16:07;;;;;;;9.20;6.90;;;;;;;13.71;76.15;98368.81;104946;1285;139417;-77
2022/07/10 02:18:34;;;;;;;8.20;6.30;;;;;;;13.70;76.31;98371.12;104927;1285;26060;-77
2022/07/10 02:21:00;;;;;;;9.60;7.00;;;;;;;13.70;76.52;98370.84;104807;1287;138001;-77
2022/07/10 02:23:28;;;;;;;11.10;7.10;;;;;;;13.70;76.40;98375.88;104955;1288;24800;-77
2022/07/10 02:25:55;;;;;;;12.50;7.10;;;;;;;13.71;76.46;98375.98;105226;1285;22556;-77
2022/07/10 02:28:22;;;;;;;8.90;6.30;;;;;;;13.69;76.45;98375.54;105023;1285;138495;-77
2022/07/10 02:30:49;;;;;;;7.90;6.20;;;;;;;13.68;76.63;98375.27;104966;1286;22582;-77
2022/07/10 02:33:16;;;;;;;10.40;6.50;;;;;;;13.68;76.56;98372.20;104920;1285;139169;-77
2022/07/10 02:35:42;;;;;;;8.80;7.10;;;;;;;13.67;76.68;98376.52;105801;1285;25264;-77
2022/07/10 02:38:09;;;;;;;10.20;6.90;;;;;;;13.65;76.94;98373.02;105085;1286;23601;-77
2022/07/10 02:40:35;;;;;;;8.70;6.60;;;;;;;13.66;76.84;98370.77;104938;1286;138192;-77
2022/07/10 02:43:02;;;;;;;12.10;7.50;;;;;;;13.68;77.04;98365.31;105354;1286;25406;-77
2022/07/10 02:45:29;;;;;;;8.40;6.50;;;;;;;13.71;76.86;98361.72;104995;1286;138455;-78
2022/07/10 02:47:56;;;;;;;11.30;7.60;;;;;;;13.72;76.85;98361.82;105379;1288;22582;-78
2022/07/10 02:50:22;;;;;;;9.90;7.80;;;;;;;13.75;77.13;98353.34;104664;1288;22691;-78
2022/07/10 02:52:49;;;;;;;9.70;7.90;;;;;;;13.78;77.27;98349.48;105097;1287;25385;-78
2022/07/10 02:55:17;;;;;;;11.10;7.30;;;;;;;13.80;77.02;98347.45;105390;1285;22572;-78
2022/07/10 02:57:44;;;;;;;12.50;6.80;;;;;;;13.80;76.92;98347.02;104768;1286;138529;-78
2022/07/10 03:00:12;;;;;;;11.60;7.30;;;;;;;13.80;76.89;98347.89;105082;1285;23927;-77
2022/07/10 03:02:38;;;;;;;10.70;7.70;;;;;;;13.80;76.83;98346.86;105591;1285;138575;-77
2022/07/10 03:05:06;;;;;;;14.10;8.30;;;;;;;13.79;76.96;98348.50;105283;1285;22582;-77
2022/07/10 03:07:33;;;;;;;13.40;8.00;;;;;;;13.80;76.95;98347.34;105564;1285;23960;-77
2022/07/10 03:10:00;;;;;;;12.90;9.20;;;;;;;13.81;76.99;98345.15;105057;1286;138424;-78
2022/07/10 03:12:27;;;;;;;12.00;7.60;;;;;;;13.83;77.03;98348.02;105200;1285;22559;-77
2022/07/10 03:14:53;;;;;;;12.10;8.20;;;;;;;13.84;76.89;98346.75;105624;1286;138937;-77
2022/07/10 03:17:20;;;;;;;11.70;8.20;;;;;;;13.84;77.05;98348.06;105484;1285;30607;-77
2022/07/10 03:19:46;;;;;;;11.00;8.30;;;;;;;13.85;77.11;98340.17;105380;1284;22635;-77
2022/07/10 03:22:13;;;;;;;12.50;8.30;;;;;;;13.87;77.11;98337.30;104689;1285;137669;-77
2022/07/10 03:24:42;;;;;;;11.80;8.00;;;;;;;13.92;77.30;98340.59;105189;1286;22575;-78
2022/07/10 03:27:10;;;;;;;11.50;7.60;;;;;;;13.95;77.38;98335.67;105696;1285;139529;-77
2022/07/10 03:29:36;;;;;;;10.40;8.30;;;;;;;13.98;77.35;98337.98;104962;1286;24458;-77
2022/07/10 03:32:07;;;;;;;12.60;8.50;;;;;;;14.00;77.26;98341.42;105135;1285;25344;-77
2022/07/10 03:34:34;;;;;;;15.00;9.00;;;;;;;14.00;77.35;98339.73;105432;1286;137950;-77
2022/07/10 03:37:00;;;;;;;12.70;8.30;;;;;;;14.01;77.48;98341.11;105005;1285;25278;-77
2022/07/10 03:39:27;;;;;;;12.00;8.30;;;;;;;14.02;77.58;98333.39;105236;1285;138689;-77
2022/07/10 03:41:54;;;;;;;9.40;8.00;;;;;;;14.04;77.56;98336.02;105504;1287;22646;-77
2022/07/10 03:44:20;;;;;;;11.90;8.90;;;;;;;14.07;77.54;98335.35;105342;1285;22674;-77
2022/07/10 03:46:49;;;;;;;12.10;8.80;;;;;;;14.10;77.63;98333.18;105078;1286;137794;-77
2022/07/10 03:49:18;;;;;;;13.10;9.10;;;;;;;14.13;77.86;98321.69;105552;1286;22719;-77
2022/07/10 03:51:49;;;;;;;11.00;8.50;;;;;;;14.15;77.69;98312.48;105376;1286;138337;-77
2022/07/10 03:54:19;;;;;;;10.70;8.30;;;;;;;14.16;77.65;98312.16;105909;1286;22625;-77
2022/07/10 03:59:34;;;;;;;11.90;8.80;;;;;;;14.20;77.72;98315.50;105448;1285;22561;-77
2022/07/10 04:02:00;;;;;;;12.50;8.80;;;;;;;14.23;77.86;98316.16;105159;1286;22672;-77
2022/07/10 04:04:27;;;;;;;11.00;8.10;;;;;;;14.26;77.91;98309.59;105122;1285;137816;-77
2022/07/10 04:06:54;;;;;;;11.90;9.00;;;;;;;14.30;77.97;98313.44;105461;1286;25735;-77
2022/07/10 04:09:22;;;;;;;11.50;8.40;;;;;;;14.34;77.96;98308.61;105268;1285;138373;-77
2022/07/10 04:11:52;;;;;;;13.20;8.50;;;;;;;14.38;77.65;98306.04;105752;1284;24271;-77
2022/07/10 04:14:20;;;;;;;11.80;8.10;;;;;;;14.42;77.81;98307.85;105484;1286;24458;-77
2022/07/10 04:16:48;;;;;;;10.70;8.30;;;;;;;14.45;77.66;98308.29;105846;1285;137665;-77
2022/07/10 04:19:15;;;;;;;11.40;8.70;;;;;;;14.48;77.50;98302.64;105991;1285;22596;-77
2022/07/10 04:21:42;;;;;;;13.70;8.90;;;;;;;14.51;77.34;98305.88;105445;1285;138454;-77
2022/07/10 04:24:09;;;;;;;12.00;8.60;;;;;;;14.54;77.40;98305.43;105168;1285;25396;-77
2022/07/10 04:26:35;;;;;;;10.90;8.70;;;;;;;14.60;77.62;98306.02;105782;1284;138599;-78
2022/07/10 04:29:03;;;;;;;14.10;8.90;;;;;;;14.65;77.21;98308.31;105690;1286;24289;-77
2022/07/10 04:31:31;;;;;;;15.60;9.00;;;;;;;14.69;77.24;98306.62;105397;1286;22652;-77
2022/07/10 04:33:58;;;;;;;14.80;9.30;;;;;;;14.73;77.31;98307.59;105307;1286;137907;-77
2022/07/10 04:36:28;;;;;;;12.80;8.80;;;;;;;14.74;77.30;98306.98;105894;1285;25482;-77
2022/07/10 04:38:54;;;;;;;;;;;;;;;14.77;77.41;98308.79;104291;1285;1224484;-77
2022/07/10 04:41:21;;;;;;;12.70;8.90;;;;;;;14.80;77.41;98308.85;106117;1286;22587;-77
2022/07/10 04:43:48;;;;;;;10.80;8.90;;;;;;;14.80;77.18;98308.08;105594;1285;22563;-77
2022/07/10 04:46:14;;;;;;;12.40;9.00;;;;;;;14.80;77.35;98305.33;105323;1285;138005;-77
2022/07/10 04:48:40;;;;;;;13.10;9.60;;;;;;;14.79;77.35;98301.45;105343;1286;22566;-77
2022/07/10 04:51:09;;;;;;;13.20;8.60;;;;;;;14.74;77.13;98299.91;105640;1285;138369;-77
2022/07/10 04:53:37;;;;;;;13.20;8.80;;;;;;;14.70;77.30;98302.50;105153;1286;22703;-77
2022/07/10 04:56:04;;;;;;;14.40;8.80;;;;;;;14.66;77.42;98306.07;105354;1285;22604;-77
2022/07/10 04:58:31;;;;;;;11.50;8.00;;;;;;;14.65;77.68;98307.48;105337;1286;138315;-76
2022/07/10 05:00:58;;;;;;;12.50;8.50;;;;;;;14.66;77.96;98310.02;105390;1286;24294;-76
2022/07/10 05:03:25;;;;;;;11.00;8.40;;;;;;;14.68;77.86;98309.40;106056;1285;138137;-78
2022/07/10 05:05:52;;;;;;;16.80;10.40;;;;;;;14.67;77.89;98310.61;105644;1286;22554;-77
2022/07/10 05:08:22;;;;;;;14.40;9.70;;;;;;;14.65;77.95;98308.15;105396;1286;25362;-77
2022/07/10 05:10:48;;;;;;;;;;;;;;;14.62;77.93;98306.61;105763;1287;138764;-77
2022/07/10 05:13:15;;;;;;;13.10;9.10;;;;;;;14.57;78.06;98304.84;105444;1288;25288;-77
2022/07/10 05:15:47;;;;;;;12.10;9.10;;;;;;;14.54;78.31;98308.18;105276;1285;138449;-77
2022/07/10 05:18:19;;;;;;;15.40;9.80;;;;;;;14.57;78.55;98306.00;105708;1285;22589;-77
2022/07/10 05:20:49;;;;;;;14.30;9.80;;;;;;;14.61;78.78;98300.91;105249;1285;138193;-77
2022/07/10 05:23:17;;;;;;;11.80;8.80;;;;;;;14.65;78.66;98293.51;105523;1285;24489;-77
2022/07/10 05:25:45;;;;;;;13.50;10.80;;;;;;;14.69;78.82;98289.48;105491;1285;22564;-77
2022/07/10 05:28:14;;;;;;;14.00;10.40;;;;;;;14.71;78.82;98291.02;105577;1288;139017;-77
2022/07/10 05:30:41;;;;;;;;;;;;;;;14.77;78.99;98286.27;105570;1285;25319;-77
2022/07/10 05:33:08;;;;;;;11.60;7.90;;;;;;;14.83;78.93;98289.27;105019;1288;126376;-77
2022/07/10 05:35:35;;;;;;;11.80;8.70;;;;;;;14.88;78.57;98292.81;105899;1285;22582;-77
2022/07/10 05:38:02;;;;;;;11.20;8.30;;;;;;;14.90;78.45;98296.48;105312;1285;22597;-77
2022/07/10 05:40:29;;;;;;;10.20;7.60;;;;;;;14.99;78.93;98303.76;105402;1285;138237;-78
2022/07/10 05:42:56;;;;;;;7.40;6.70;;;;;;;15.16;77.77;98304.37;105226;1288;22647;-77
2022/07/10 05:45:23;;;;;;;9.10;6.00;;;;;;;15.35;77.23;98298.38;105333;1285;138368;-78
2022/07/10 05:47:52;;;;;;;7.50;5.80;;;;;;;15.46;76.95;98299.66;105648;1286;24327;-77
2022/07/10 05:50:20;;;;;;;4.90;4.20;;;;;;;15.53;76.07;98298.75;105934;1286;24522;-78
2022/07/10 05:52:48;;;;;;;5.30;4.10;;;;;;;15.54;74.13;98299.08;105210;1288;137620;-79
2022/07/10 05:55:16;;;;;;;6.60;4.10;;;;;;;15.46;73.94;98299.44;105621;1286;25335;-78
2022/07/10 05:57:45;;;;;;;4.80;4.00;;;;;;;15.38;73.80;98305.45;105574;1286;138042;-78
2022/07/10 06:00:12;;;;;;;4.00;3.70;;;;;;;15.30;73.94;98306.80;105517;1286;25462;-78
2022/07/10 06:02:39;;;;;;;4.90;4.30;;;;;;;15.28;74.69;98309.06;105961;1286;139565;-78
2022/07/10 06:05:07;;;;;;;4.80;4.30;;;;;;;15.30;74.51;98302.86;106503;1285;24236;-77
2022/07/10 06:07:35;;;;;;;5.80;4.60;;;;;;;15.31;75.01;98297.95;107364;1285;23474;-77
2022/07/10 06:10:04;;;;;;;4.90;4.00;;;;;;;15.34;75.35;98295.64;106749;1286;140407;-76
2022/07/10 06:12:34;;;;;;;4.10;3.70;;;;;;;15.40;75.50;98295.73;105753;1286;24243;-76
2022/07/10 06:15:01;;;;;;;3.90;3.50;;;;;;;15.50;75.06;98292.17;106557;1286;138604;-78
2022/07/10 06:17:31;;;;;;;3.30;3.00;;;;;;;15.58;74.12;98301.36;106260;1286;24677;-78
2022/07/10 06:20:01;;;;;;;3.90;3.30;;;;;;;15.58;74.22;98303.73;106154;1286;22856;-77
2022/07/10 06:22:31;;;;;;;3.70;3.10;;;;;;;15.68;74.39;98303.84;106320;1285;139239;-78
2022/07/10 06:25:06;;;;;;;5.10;2.60;;;;;;;15.78;73.54;98306.08;105567;1285;25762;-78
2022/07/10 06:27:35;;;;;;;2.40;2.20;;;;;;;15.83;73.16;98309.34;105693;1286;138258;-78
2022/07/10 06:30:06;;;;;;;3.00;2.30;;;;;;;15.78;72.03;98305.85;105246;1286;22730;-77
2022/07/10 06:32:37;;;;;;;2.50;2.30;;;;;;;15.70;72.08;98307.35;105179;1286;137848;-78
2022/07/10 06:35:07;;;;;;;2.60;2.40;;;;;;;15.62;71.58;98307.67;105706;1286;24096;-78
2022/07/10 06:37:37;;;;;;;2.60;2.20;;;;;;;15.59;72.42;98306.73;105774;1286;25501;-78
2022/07/10 06:40:05;;;;;;;2.90;1.80;;;;;;;15.64;71.55;98303.43;105063;1285;139277;-78
2022/07/10 06:42:43;;;;;;;2.20;1.90;;;;;;;15.73;71.80;98299.39;105239;1285;22598;-78
2022/07/10 06:45:12;;;;;;;1.80;1.70;;;;;;;15.81;71.48;98302.88;106005;1286;138053;-79
2022/07/10 06:50:24;;;;;;;1.90;1.70;;;;;;;16.04;71.05;98302.35;105721;1286;22582;-79
2022/07/10 06:52:51;;;;;;;1.80;1.70;;;;;;;16.17;70.51;98303.70;105053;1286;137817;-79
2022/07/10 06:55:24;;;;;;;1.90;1.50;;;;;;;16.22;69.65;98305.04;105481;1286;22579;-79
2022/07/10 06:57:51;;;;;;;2.20;2.00;;;;;;;16.21;69.49;98303.05;105366;1286;138101;-79
2022/07/10 07:00:19;;;;;;;1.80;1.70;;;;;;;16.17;68.27;98305.45;105292;1287;25509;-79
2022/07/10 07:02:46;;;;;;;3.00;1.60;;;;;;;16.11;67.15;98305.83;106131;1285;138211;-83
2022/07/10 07:05:13;;;;;;;2.50;1.50;;;;;;;16.11;68.09;98303.23;105287;1286;22658;-79
2022/07/10 07:07:43;;;;;;;1.90;1.30;;;;;;;16.22;67.08;98299.70;105076;1285;22589;-78
2022/07/10 07:10:11;;;;;;;2.70;1.40;;;;;;;16.33;67.41;98300.84;105586;1285;138384;-79
2022/07/10 07:12:38;;;;;;;3.10;1.40;;;;;;;16.48;66.18;98306.54;105168;1286;22566;-80
2022/07/10 07:15:06;;;;;;;2.50;1.20;;;;;;;16.61;65.07;98307.05;105601;1286;138200;-78
2022/07/10 07:18:31;;;;;;;2.90;1.30;;;;;;;16.67;64.29;98299.88;105325;1286;25285;-81
2022/07/10 07:23:12;;;;;;;3.10;0.90;;;;;;;16.73;64.32;98297.20;105424;1286;22577;-79
2022/07/10 07:25:41;;;;;;;3.30;1.50;;;;;;;16.76;62.81;98300.80;105666;1287;24274;-79
2022/07/10 07:28:15;;;;;;;2.30;1.30;;;;;;;16.81;62.85;98298.11;105658;1285;137658;-78
2022/07/10 07:30:42;;;;;;;2.00;1.10;;;;;;;16.93;63.31;98299.88;105301;1287;22729;-78
2022/07/10 07:33:09;;;;;;;1.50;1.20;;;;;;;17.01;62.29;98302.06;104859;1287;138446;-81
2022/07/10 07:35:37;;;;;;;2.40;1.20;;;;;;;17.00;63.00;98306.15;105615;1286;22571;-80
2022/07/10 07:38:05;;;;;;;1.60;1.20;;;;;;;16.94;62.71;98308.52;106084;1286;23296;-80
2022/07/10 07:40:33;;;;;;;2.30;1.20;;;;;;;16.96;62.09;98304.75;105390;1286;137838;-78
2022/07/10 07:43:00;;;;;;;1.30;1.20;;;;;;;17.04;62.89;98309.68;105611;1285;25430;-80
2022/07/10 07:45:27;;;;;;;3.90;1.30;;;;;;;17.21;63.04;98311.42;105684;1286;137681;-78
2022/07/10 07:48:02;;;;;;;2.50;1.00;;;;;;;17.38;61.33;98306.66;105600;1286;25971;-78
2022/07/10 07:50:34;;;;;;;2.70;1.40;;;;;;;17.40;61.00;98301.23;105864;1286;25377;-77
2022/07/10 07:53:02;;;;;;;2.40;1.40;;;;;;;17.30;61.48;98298.38;105231;1289;22557;-79
2022/07/10 07:55:30;;;;;;;4.80;1.50;;;;;;;17.23;62.06;98296.21;105683;1286;22708;-80
2022/07/10 07:57:58;;;;;;;3.40;1.60;;;;;;;17.30;60.54;98287.33;105571;1286;137858;-79
2022/07/10 08:00:27;;;;;;;3.90;1.60;;;;;;;17.38;60.15;98296.43;105598;1286;22649;-78
2022/07/10 08:02:55;;;;;;;4.30;1.20;;;;;;;17.45;60.03;98291.77;105844;1286;137710;-78
2022/07/10 08:05:23;;;;;;;4.80;1.40;;;;;;;17.62;61.45;98300.03;105019;1287;22558;-82
2022/07/10 08:07:53;;;;;;;3.50;1.50;;;;;;;17.81;61.57;98297.42;105415;1287;23232;-76
2022/07/10 08:10:24;;;;;;;2.40;1.40;;;;;;;18.01;60.24;98305.21;105434;1287;137848;-78
2022/07/10 08:12:50;;;;;;;3.10;1.20;;;;;;;18.00;57.78;98306.55;105236;1285;22570;-77
2022/07/10 08:15:21;;;;;;;1.90;1.60;;;;;;;17.94;57.47;98306.65;105148;1287;137864;-78
2022/07/10 08:17:50;;;;;;;2.70;1.20;;;;;;;17.98;57.84;98311.20;105577;1286;22589;-78
2022/07/10 08:20:17;;;;;;;2.00;1.40;;;;;;;18.02;57.17;98309.50;106040;1287;23994;-78
2022/07/10 08:22:46;;;;;;;1.90;1.10;;;;;;;18.07;56.74;98304.08;105402;1287;137749;-78
2022/07/10 08:25:13;;;;;;;2.50;0.90;;;;;;;18.14;57.11;98301.22;105224;1287;22586;-77
2022/07/10 08:27:41;;;;;;;2.20;1.10;;;;;;;18.21;54.75;98300.52;105340;1289;137956;-78
2022/07/10 08:30:09;;;;;;;1.30;0.80;;;;;;;18.19;54.41;98303.52;105253;1287;22624;-77
2022/07/10 08:32:38;;;;;;;3.50;1.10;;;;;;;18.20;55.71;98297.23;105337;1287;137955;-80
2022/07/10 08:35:07;;;;;;;2.40;1.00;;;;;;;18.25;54.53;98305.52;105521;1287;22579;-78
2022/07/10 08:37:38;;;;;;;2.50;0.80;;;;;;;18.26;53.18;98305.02;105347;1285;22651;-77
2022/07/10 08:40:10;;;;;;;1.40;0.80;;;;;;;18.13;53.75;98311.83;105099;1287;138099;-77
2022/07/10 08:42:37;;;;;;;2.30;0.80;;;;;;;18.14;55.60;98315.88;105697;1287;25251;-79
2022/07/10 08:45:06;;;;;;;3.00;1.00;;;;;;;18.28;54.89;98314.57;105279;1286;137963;-78
2022/07/10 08:47:36;;;;;;;;;;;;;;;18.34;54.56;98314.20;105645;1286;22915;-78
2022/07/10 08:50:04;;;;;;;3.10;1.00;;;;;;;18.46;54.01;98303.30;105595;1286;22806;-78
2022/07/10 08:52:42;;;;;;;1.60;1.00;;;;;;;18.39;54.22;98308.89;105581;1286;138084;-79
2022/07/10 08:55:14;;;;;;;5.50;1.00;;;;;;;18.15;55.24;98315.15;105418;1286;24317;-79
2022/07/10 08:57:44;;;;;;;2.00;0.90;;;;;;;17.85;55.72;98323.27;105308;1287;137628;-78
2022/07/10 09:00:11;;;;;;;2.00;1.10;;;;;;;17.85;55.61;98327.23;105726;1286;24411;-79
2022/07/10 09:02:38;;;;;;;2.30;1.10;;;;;;;17.95;55.56;98327.23;105755;1286;138195;-78
2022/07/10 09:05:08;;;;;;;3.20;0.70;;;;;;;17.97;53.66;98322.84;105479;1285;22572;-78
2022/07/10 09:07:36;;;;;;;1.70;0.80;;;;;;;17.82;52.01;98331.84;106391;1287;24234;-77
2022/07/10 09:10:08;;;;;;;1.70;0.60;;;;;;;17.66;53.52;98335.45;105347;1287;137723;-77
2022/07/10 09:13:28;;;;;;;;;;;;;;;;;;;;;
2022/07/10 09:16:23;;;;;;;3.60;0.90;;;;;;;17.38;54.55;98332.33;106201;1286;137546;-89
2022/07/10 09:19:19;;;;;;;2.10;0.60;;;;;;;17.35;55.44;98336.82;106431;1286;22633;-81
2022/07/10 09:21:50;;;;;;;2.90;0.70;;;;;;;17.39;53.77;98336.61;105815;1286;137759;-82
2022/07/10 09:24:24;;;;;;;2.60;0.80;;;;;;;17.39;53.44;98330.27;106257;1288;31502;-85
2022/07/10 09:26:59;;;;;;;2.50;0.90;;;;;;;17.42;53.63;98335.80;105201;1287;138394;-81
2022/07/10 09:29:27;;;;;;;3.60;0.80;;;;;;;17.45;54.13;98328.99;105618;1287;26834;-80
2022/07/10 09:32:03;;;;;;;2.40;0.80;;;;;;;17.48;54.49;98331.48;105462;1287;25722;-83
2022/07/10 09:34:41;;;;;;;2.70;0.60;;;;;;;17.56;54.58;98334.80;105995;1286;137599;-83
2022/07/10 09:37:47;;;;;;;2.30;0.70;;;;;;;17.62;54.43;98333.12;105764;1286;23935;-81
2022/07/10 09:40:15;;;;;;;1.80;0.60;;;;;;;17.71;54.19;98329.66;105544;1286;137707;-84
2022/07/10 09:42:43;;;;;;;1.10;0.60;;;;;;;17.80;52.47;98324.10;105884;1287;22650;-83
2022/07/10 09:45:13;;;;;;;1.90;0.70;;;;;;;17.91;51.93;98323.88;105644;1285;138477;-82
2022/07/10 09:48:12;;;;;;;2.20;0.70;;;;;;;17.99;51.82;98323.27;105554;1286;22730;-82
2022/07/10 09:50:40;;;;;;;4.00;0.70;;;;;;;18.06;51.97;98326.14;105607;1286;137564;-82
2022/07/10 09:53:12;;;;;;;4.20;0.60;;;;;;;18.06;50.15;98326.04;105777;1286;22677;-85
2022/07/10 09:55:41;;;;;;;2.30;0.70;;;;;;;17.98;49.34;98330.38;105659;1286;25221;-82
2022/07/10 09:58:09;;;;;;;4.50;0.60;;;;;;;17.96;49.81;98331.73;105886;1286;138075;-83
2022/07/10 10:00:39;;;;;;;1.90;0.50;;;;;;;18.11;49.39;98327.06;105461;1286;22745;-82
2022/07/10 10:03:11;;;;;;;1.40;0.50;;;;;;;18.40;49.48;98324.05;105977;1286;137740;-83
2022/07/10 10:06:09;;;;;;;1.90;0.60;;;;;;;18.57;48.03;98317.64;105848;1286;22715;-80
2022/07/10 10:08:50;;;;;;;2.00;0.60;;;;;;;18.63;48.17;98315.35;105408;1285;138439;-82
2022/07/10 10:11:23;;;;;;;3.30;0.70;;;;;;;18.68;47.99;98313.66;105478;1286;22582;-81
2022/07/10 10:13:50;;;;;;;2.80;0.70;;;;;;;18.67;48.41;98307.60;105371;1286;22649;-81
2022/07/10 10:16:19;;;;;;;2.10;0.60;;;;;;;18.93;48.85;98306.84;105449;1285;137564;-83
2022/07/10 10:21:28;;;;;;;6.20;0.80;;;;;;;19.34;46.81;98305.24;105623;1285;138873;-82
2022/07/10 10:23:56;;;;;;;0.80;0.50;;;;;;;19.00;46.32;98316.42;105636;1286;22586;-82
2022/07/10 10:26:26;;;;;;;1.20;0.70;;;;;;;18.69;46.80;98313.36;105487;1286;25343;-84
2022/07/10 10:28:56;;;;;;;1.90;0.50;;;;;;;18.53;47.61;98314.67;105746;1285;137419;-82
2022/07/10 10:31:31;;;;;;;3.80;0.70;;;;;;;18.39;48.56;98323.00;106489;1286;25373;-86
2022/07/10 10:34:00;;;;;;;5.00;0.70;;;;;;;18.29;49.93;98318.64;106182;1284;138582;-86
2022/07/10 10:36:36;;;;;;;5.10;0.60;;;;;;;18.18;49.37;98326.80;106239;1286;22616;-84
2022/07/10 10:39:16;;;;;;;2.50;0.70;;;;;;;18.04;49.41;98327.54;105689;1285;137973;-82
2022/07/10 10:41:55;;;;;;;1.10;0.50;;;;;;;17.86;48.63;98328.95;105662;1286;24393;-85
2022/07/10 10:45:23;;;;;;;3.20;0.70;;;;;;;17.78;50.72;98326.38;105837;1286;137665;-81
2022/07/10 10:47:59;;;;;;;2.20;0.40;;;;;;;17.84;49.27;98325.31;106258;1286;22571;-79
2022/07/10 10:50:49;;;;;;;2.60;0.60;;;;;;;17.89;48.07;98321.20;106028;1286;24433;-83
2022/07/10 10:53:28;;;;;;;2.70;0.60;;;;;;;18.12;49.14;98322.58;105922;1286;22643;-84
2022/07/10 10:56:04;;;;;;;3.60;0.70;;;;;;;18.39;47.43;98317.48;106565;1285;25384;-83
2022/07/10 10:58:40;;;;;;;2.50;0.40;;;;;;;18.61;47.37;98314.77;105226;1286;138816;-82
2022/07/10 11:01:21;;;;;;;1.50;0.40;;;;;;;18.87;47.05;98315.78;105807;1285;23609;-83
2022/07/10 11:04:04;;;;;;;2.00;0.60;;;;;;;18.80;46.69;98310.42;105915;1285;138303;-81
2022/07/10 11:06:47;;;;;;;2.90;0.80;;;;;;;18.67;47.44;98302.25;106514;1285;29923;-84
2022/07/10 11:09:43;;;;;;;1.20;0.50;;;;;;;18.92;48.20;98305.20;105815;1285;137942;-84
2022/07/10 11:12:12;;;;;;;2.50;0.60;;;;;;;19.16;49.21;98303.17;106039;1287;22602;-87
2022/07/10 11:14:44;;;;;;;5.10;0.80;;;;;;;19.40;47.18;98297.45;106348;1285;137840;-82
2022/07/10 11:17:12;;;;;;;1.80;0.60;;;;;;;19.52;47.75;98298.36;106927;1286;24314;-84
2022/07/10 11:19:40;;;;;;;3.80;0.90;;;;;;;19.60;48.54;98295.55;106212;1286;22622;-84
2022/07/10 11:22:10;;;;;;;5.40;0.80;;;;;;;19.63;47.70;98303.95;106585;1286;137775;-81
2022/07/10 11:25:13;;;;;;;2.60;0.80;;;;;;;19.67;46.09;98307.11;106101;1287;22622;-85
2022/07/10 11:28:13;;;;;;;3.10;0.50;;;;;;;19.52;45.14;98307.11;106630;1285;137980;-84
2022/07/10 11:30:57;;;;;;;3.10;0.50;;;;;;;19.41;46.24;98299.14;106228;1285;23488;-84
2022/07/10 11:33:46;;;;;;;2.40;0.50;;;;;;;19.55;46.15;98302.78;106013;1285;137955;-83
2022/07/10 11:36:16;;;;;;;2.70;0.60;;;;;;;19.57;46.37;98308.71;106314;1285;24318;-85
2022/07/10 11:38:44;;;;;;;2.20;0.60;;;;;;;19.38;46.53;98310.73;105801;1286;137852;-84
2022/07/10 11:41:23;;;;;;;4.60;1.00;;;;;;;19.32;45.77;98313.40;106681;1285;24257;-83
2022/07/10 11:44:12;;;;;;;3.00;0.60;;;;;;;19.18;45.71;98309.20;106140;1287;22709;-84
2022/07/10 11:46:48;;;;;;;1.00;0.50;;;;;;;19.01;45.76;98313.10;105550;1287;138317;-84
2022/07/10 11:49:21;;;;;;;2.60;0.70;;;;;;;18.87;46.31;98308.11;105717;1285;25273;-84